createdAt,value
2023-03-19T00:01:53.451Z,3.07
2023-03-19T00:04:25.482Z,1.90
2023-03-19T00:06:56.917Z,4.33
2023-03-19T00:09:29.145Z,2.83
2023-03-19T00:12:00.535Z,1.60
2023-03-19T00:14:31.944Z,4.33
2023-03-19T00:17:03.449Z,3.40
2023-03-19T00:19:34.897Z,5.23
2023-03-19T00:22:06.257Z,5.60
2023-03-19T00:24:37.619Z,2.43
2023-03-19T00:27:08.960Z,1.50
2023-03-19T00:29:40.395Z,2.37
2023-03-19T00:32:11.788Z,2.77
2023-03-19T00:34:43.109Z,1.13
2023-03-19T00:37:16.364Z,2.03
2023-03-19T00:39:47.727Z,1.50
2023-03-19T00:42:19.171Z,4.90
2023-03-19T00:44:50.674Z,2.97
2023-03-19T00:47:22.466Z,1.20
2023-03-19T00:49:53.856Z,3.67
2023-03-19T00:52:25.660Z,1.90
2023-03-19T00:54:57.229Z,2.80
2023-03-19T00:57:28.661Z,3.57
2023-03-19T01:00:00.010Z,2.37
2023-03-19T01:02:32.211Z,1.63
2023-03-19T01:05:03.983Z,3.40
2023-03-19T01:07:35.478Z,2.00
2023-03-19T01:10:07.333Z,1.40
2023-03-19T01:12:38.789Z,2.43
2023-03-19T01:15:10.737Z,2.77
2023-03-19T01:17:42.363Z,3.07
2023-03-19T01:20:15.206Z,2.00
2023-03-19T01:22:46.572Z,3.30
2023-03-19T01:25:18.023Z,2.50
2023-03-19T01:27:51.039Z,1.83
2023-03-19T01:30:22.430Z,1.80
2023-03-19T01:32:53.872Z,2.00
2023-03-19T01:35:25.254Z,2.07
2023-03-19T01:37:56.666Z,2.27
2023-03-19T01:40:28.340Z,1.27
2023-03-19T01:43:22.066Z,1.13
2023-03-19T01:45:58.884Z,4.30
2023-03-19T01:48:41.068Z,3.90
2023-03-19T01:51:16.472Z,2.33
2023-03-19T01:53:51.749Z,1.48
2023-03-19T01:56:34.807Z,3.90
2023-03-19T01:59:23.078Z,2.33
2023-03-19T02:02:02.280Z,2.20
2023-03-19T02:04:37.756Z,2.40
2023-03-19T02:07:10.301Z,2.15
2023-03-19T02:09:41.963Z,2.10
2023-03-19T02:12:13.754Z,3.00
2023-03-19T02:14:45.116Z,2.53
2023-03-19T02:17:17.040Z,1.40
2023-03-19T02:20:01.385Z,2.77
2023-03-19T02:22:33.478Z,2.27
2023-03-19T02:25:21.701Z,1.83
2023-03-19T02:27:53.768Z,2.93
2023-03-19T02:30:32.534Z,1.80
2023-03-19T02:33:04.625Z,3.27
2023-03-19T02:35:37.240Z,1.73
2023-03-19T02:38:09.575Z,1.83
2023-03-19T02:41:05.552Z,1.37
2023-03-19T02:43:41.259Z,2.30
2023-03-19T02:46:13.821Z,1.30
2023-03-19T02:48:45.251Z,3.50
2023-03-19T02:51:16.671Z,1.73
2023-03-19T02:53:48.040Z,1.47
2023-03-19T02:56:19.379Z,1.57
2023-03-19T02:58:50.753Z,2.77
2023-03-19T03:01:22.175Z,2.23
2023-03-19T03:03:53.646Z,2.20
2023-03-19T03:06:24.982Z,3.73
2023-03-19T03:08:56.519Z,1.60
2023-03-19T03:11:27.855Z,2.57
2023-03-19T03:13:59.278Z,1.90
2023-03-19T03:16:30.777Z,1.93
2023-03-19T03:19:02.480Z,2.43
2023-03-19T03:21:35.675Z,2.27
2023-03-19T03:24:07.425Z,1.70
2023-03-19T03:26:39.003Z,2.70
2023-03-19T03:29:10.962Z,2.33
2023-03-19T03:31:42.438Z,2.57
2023-03-19T03:34:13.776Z,1.60
2023-03-19T03:36:47.002Z,2.07
2023-03-19T03:39:18.989Z,1.70
2023-03-19T03:41:50.417Z,3.87
2023-03-19T03:44:21.797Z,1.83
2023-03-19T03:46:53.240Z,1.77
2023-03-19T03:49:24.574Z,3.43
2023-03-19T03:51:56.047Z,2.40
2023-03-19T03:54:27.421Z,2.93
2023-03-19T03:56:59.076Z,2.77
2023-03-19T03:59:31.122Z,5.77
2023-03-19T04:02:02.633Z,4.53
2023-03-19T04:04:34.300Z,3.73
2023-03-19T04:07:06.650Z,6.63
2023-03-19T04:09:37.989Z,6.43
2023-03-19T04:12:09.454Z,9.87
2023-03-19T04:14:40.858Z,7.60
2023-03-19T04:17:12.270Z,5.70
2023-03-19T04:19:44.020Z,5.63
2023-03-19T04:22:15.973Z,7.70
2023-03-19T04:24:47.405Z,4.93
2023-03-19T04:27:18.805Z,7.67
2023-03-19T04:29:50.143Z,6.50
2023-03-19T04:32:21.745Z,5.43
2023-03-19T04:34:53.310Z,7.63
2023-03-19T04:37:24.674Z,8.70
2023-03-19T04:39:56.032Z,11.13
2023-03-19T04:42:27.404Z,8.93
2023-03-19T04:44:58.749Z,8.67
2023-03-19T04:47:30.106Z,8.93
2023-03-19T04:50:01.699Z,5.40
2023-03-19T04:52:33.776Z,6.53
2023-03-19T04:55:07.864Z,7.93
2023-03-19T04:57:39.193Z,6.90
2023-03-19T05:00:11.170Z,7.07
2023-03-19T05:02:42.954Z,8.33
2023-03-19T05:05:14.392Z,9.93
2023-03-19T05:07:45.966Z,10.27
2023-03-19T05:10:17.446Z,8.20
2023-03-19T05:12:49.089Z,8.60
2023-03-19T05:15:20.373Z,10.43
2023-03-19T05:17:51.708Z,7.93
2023-03-19T05:20:23.696Z,8.80
2023-03-19T05:22:55.125Z,10.03
2023-03-19T05:25:26.981Z,8.93
2023-03-19T05:27:58.328Z,9.63
2023-03-19T05:30:30.204Z,9.73
2023-03-19T05:33:02.344Z,10.33
2023-03-19T05:35:34.593Z,8.83
2023-03-19T05:38:06.317Z,8.03
2023-03-19T05:40:37.847Z,9.20
2023-03-19T05:43:10.493Z,12.60
2023-03-19T05:45:43.410Z,8.60
2023-03-19T05:48:14.815Z,8.23
2023-03-19T05:50:46.477Z,10.30
2023-03-19T05:53:18.643Z,10.73
2023-03-19T05:55:49.999Z,10.93
2023-03-19T05:58:21.355Z,8.63
2023-03-19T06:00:56.497Z,9.93
2023-03-19T06:03:27.784Z,10.93
2023-03-19T06:05:59.224Z,9.77
2023-03-19T06:08:30.537Z,11.47
2023-03-19T06:11:01.865Z,10.27
2023-03-19T06:13:33.325Z,10.43
2023-03-19T06:16:05.029Z,9.80
2023-03-19T06:18:36.578Z,11.67
2023-03-19T06:21:09.415Z,12.07
2023-03-19T06:23:40.733Z,9.83
2023-03-19T06:26:12.322Z,10.70
2023-03-19T06:28:43.656Z,10.83
2023-03-19T06:31:14.996Z,9.27
2023-03-19T06:33:46.560Z,10.40
2023-03-19T06:36:17.903Z,8.30
2023-03-19T06:38:49.177Z,9.37
2023-03-19T06:41:21.233Z,10.57
2023-03-19T06:43:53.202Z,13.23
2023-03-19T06:46:24.807Z,8.90
2023-03-19T06:48:57.065Z,9.87
2023-03-19T06:51:28.455Z,8.83
2023-03-19T06:53:59.901Z,8.23
2023-03-19T06:56:31.333Z,7.07
2023-03-19T06:59:02.846Z,8.17
2023-03-19T07:01:34.145Z,9.97
2023-03-19T07:04:05.587Z,7.57
2023-03-19T07:06:36.939Z,8.90
2023-03-19T07:09:08.334Z,8.43
2023-03-19T07:11:39.719Z,11.63
2023-03-19T07:14:11.510Z,8.73
2023-03-19T07:16:42.866Z,8.83
2023-03-19T07:19:14.172Z,10.80
2023-03-19T07:21:46.649Z,10.00
2023-03-19T07:24:18.202Z,10.37
2023-03-19T07:26:49.557Z,9.27
2023-03-19T07:29:21.117Z,9.23
2023-03-19T07:31:52.447Z,9.80
2023-03-19T07:34:23.902Z,10.00
2023-03-19T07:36:55.222Z,8.23
2023-03-19T07:39:26.584Z,7.37
2023-03-19T07:41:57.908Z,9.37
2023-03-19T07:44:29.815Z,12.17
2023-03-19T07:47:01.121Z,8.47
2023-03-19T07:49:32.460Z,10.30
2023-03-19T07:52:04.963Z,9.83
2023-03-19T07:54:36.552Z,8.23
2023-03-19T07:57:08.967Z,6.43
2023-03-19T07:59:40.495Z,7.90
2023-03-19T08:02:13.225Z,10.20
2023-03-19T08:04:44.606Z,9.20
2023-03-19T08:07:16.824Z,7.27
2023-03-19T08:09:48.287Z,7.00
2023-03-19T08:12:19.640Z,5.83
2023-03-19T08:14:51.034Z,10.00
2023-03-19T08:17:22.352Z,7.13
2023-03-19T08:19:53.677Z,8.60
2023-03-19T08:22:24.955Z,7.10
2023-03-19T08:24:56.280Z,7.97
2023-03-19T08:27:28.676Z,6.53
2023-03-19T08:30:00.131Z,6.83
2023-03-19T08:32:31.490Z,10.43
2023-03-19T08:35:04.246Z,6.87
2023-03-19T08:37:35.676Z,9.73
2023-03-19T08:40:07.966Z,6.60
2023-03-19T08:42:44.350Z,8.13
2023-03-19T08:45:16.650Z,7.10
2023-03-19T08:47:48.906Z,7.17
2023-03-19T08:50:20.353Z,6.00
2023-03-19T08:52:52.070Z,4.80
2023-03-19T08:55:23.510Z,6.03
2023-03-19T08:57:56.108Z,6.93
2023-03-19T09:00:27.851Z,7.20
2023-03-19T09:02:59.261Z,8.50
2023-03-19T09:05:30.817Z,6.17
2023-03-19T09:08:02.300Z,8.47
2023-03-19T09:10:33.799Z,6.27
2023-03-19T09:13:05.591Z,5.40
2023-03-19T09:15:36.921Z,9.05
2023-03-19T09:18:08.299Z,4.73
2023-03-19T09:20:39.637Z,7.35
2023-03-19T09:23:10.977Z,5.40
2023-03-19T09:25:42.602Z,7.28
2023-03-19T09:28:13.899Z,6.07
2023-03-19T09:30:47.298Z,4.47
2023-03-19T09:33:20.467Z,7.93
2023-03-19T09:35:53.753Z,6.07
2023-03-19T09:38:25.105Z,7.28
2023-03-19T09:41:12.969Z,9.25
2023-03-19T09:44:16.149Z,7.75
2023-03-19T09:46:59.781Z,8.05
2023-03-19T09:49:37.721Z,6.35
2023-03-19T09:52:28.387Z,6.22
2023-03-19T09:55:11.524Z,6.72
2023-03-19T09:57:42.806Z,4.22
2023-03-19T10:00:17.119Z,5.78
2023-03-19T10:02:54.146Z,6.10
2023-03-19T10:05:42.037Z,6.40
2023-03-19T10:08:41.776Z,8.52
2023-03-19T10:11:31.458Z,4.93
2023-03-19T10:14:23.090Z,7.68
2023-03-19T10:16:58.986Z,8.43
2023-03-19T10:22:34.858Z,5.78
2023-03-19T10:25:13.533Z,4.78
2023-03-19T10:27:48.550Z,5.90
2023-03-19T10:30:20.872Z,3.38
2023-03-19T10:32:59.005Z,4.60
2023-03-19T10:35:51.077Z,2.97
2023-03-19T10:38:24.791Z,2.90
2023-03-19T10:41:32.164Z,2.40
2023-03-19T10:44:10.591Z,4.32
2023-03-19T10:46:41.898Z,3.90
2023-03-19T10:49:15.043Z,3.58
2023-03-19T10:51:46.678Z,3.33
2023-03-19T10:54:26.386Z,2.67
2023-03-19T10:56:59.816Z,1.98
2023-03-19T10:59:36.097Z,3.50
2023-03-19T11:02:23.386Z,2.95
2023-03-19T11:05:12.800Z,2.72
2023-03-19T11:07:44.410Z,2.97
2023-03-19T11:10:17.137Z,4.72
2023-03-19T11:12:57.671Z,5.68
2023-03-19T11:15:36.443Z,2.58
2023-03-19T11:18:24.987Z,2.00
2023-03-19T11:21:05.274Z,3.03
2023-03-19T11:23:42.111Z,4.00
2023-03-19T11:26:19.176Z,4.43
2023-03-19T11:28:51.952Z,4.13
2023-03-19T11:31:56.235Z,5.35
2023-03-19T11:34:53.730Z,4.72
2023-03-19T11:37:29.532Z,3.65
2023-03-19T11:40:14.402Z,2.90
2023-03-19T11:43:05.083Z,3.70
2023-03-19T11:45:53.616Z,3.45
2023-03-19T11:49:02.390Z,2.78
2023-03-19T11:51:59.979Z,2.22
2023-03-19T11:54:49.867Z,2.10
2023-03-19T11:58:06.844Z,3.38
2023-03-19T12:00:50.699Z,3.58
2023-03-19T12:03:52.457Z,2.20
2023-03-19T12:06:46.731Z,4.25
2023-03-19T12:09:41.638Z,3.05
2023-03-19T12:12:33.132Z,2.25
2023-03-19T12:15:16.195Z,3.22
2023-03-19T12:18:13.726Z,3.00
2023-03-19T12:21:11.001Z,3.13
2023-03-19T12:24:02.664Z,2.63
2023-03-19T12:27:06.491Z,2.28
2023-03-19T12:30:01.859Z,6.60
2023-03-19T12:32:53.938Z,3.17
2023-03-19T12:35:38.358Z,3.72
2023-03-19T12:38:38.135Z,4.10
2023-03-19T12:41:12.616Z,2.72
2023-03-19T12:44:05.129Z,2.70
2023-03-19T12:46:45.849Z,3.85
2023-03-19T12:49:25.810Z,3.97
2023-03-19T12:52:23.884Z,4.60
2023-03-19T12:55:05.766Z,4.57
2023-03-19T12:57:48.729Z,3.42
2023-03-19T13:00:43.092Z,2.78
2023-03-19T13:03:23.051Z,3.22
2023-03-19T13:06:09.090Z,3.63
2023-03-19T13:09:03.804Z,2.92
2023-03-19T13:11:44.308Z,2.30
2023-03-19T13:14:25.476Z,4.43
2023-03-19T13:17:21.245Z,2.80
2023-03-19T13:19:56.952Z,4.00
2023-03-19T13:22:32.783Z,3.00
2023-03-19T13:27:36.961Z,5.43
2023-03-19T13:30:11.177Z,3.50
2023-03-19T13:33:04.421Z,4.22
2023-03-19T13:35:43.525Z,4.55
2023-03-19T13:38:39.473Z,5.72
2023-03-19T13:41:32.673Z,7.00
2023-03-19T13:44:22.065Z,5.20
2023-03-19T13:46:53.509Z,4.72
2023-03-19T13:49:33.916Z,4.20
2023-03-19T13:52:11.533Z,4.97
2023-03-19T13:54:47.727Z,4.38
2023-03-19T13:57:22.451Z,4.78
2023-03-19T13:59:53.728Z,2.92
2023-03-19T14:02:25.484Z,2.83
2023-03-19T14:05:10.388Z,3.92
2023-03-19T14:07:44.662Z,2.42
2023-03-19T14:10:26.565Z,2.50
2023-03-19T14:13:15.334Z,2.03
2023-03-19T14:15:51.213Z,3.67
2023-03-19T14:18:24.740Z,3.10
2023-03-19T14:20:56.322Z,2.70
2023-03-19T14:23:39.625Z,2.55
2023-03-19T14:26:17.319Z,5.75
2023-03-19T14:29:08.323Z,4.38
2023-03-19T14:31:49.572Z,3.63
2023-03-19T14:34:27.143Z,6.03
2023-03-19T14:37:03.666Z,4.05
2023-03-19T14:39:47.587Z,6.32
2023-03-19T14:42:24.411Z,4.38
2023-03-19T14:45:18.071Z,5.68
2023-03-19T14:48:15.135Z,6.57
2023-03-19T14:51:09.825Z,8.40
2023-03-19T14:53:46.372Z,5.75
2023-03-19T14:56:26.100Z,7.40
2023-03-19T14:59:03.527Z,10.13
2023-03-19T15:01:41.189Z,5.63
2023-03-19T15:04:15.747Z,8.73
2023-03-19T15:06:54.759Z,7.88
2023-03-19T15:09:32.386Z,9.73
2023-03-19T15:12:33.501Z,10.25
2023-03-19T15:15:16.632Z,8.88
2023-03-19T15:18:03.448Z,13.60
2023-03-19T15:20:47.408Z,9.88
2023-03-19T15:23:27.273Z,11.35
2023-03-19T15:26:02.933Z,10.63
2023-03-19T15:28:46.680Z,12.70
2023-03-19T15:31:31.781Z,11.03
2023-03-19T15:34:27.921Z,10.90
2023-03-19T15:37:12.152Z,12.43
2023-03-19T15:39:51.567Z,12.67
2023-03-19T15:42:26.731Z,14.27
2023-03-19T15:45:07.461Z,31.50
2023-03-19T15:47:45.984Z,13.87
2023-03-19T15:50:23.646Z,11.93
2023-03-19T15:53:00.819Z,10.40
2023-03-19T15:55:35.597Z,10.73
2023-03-19T15:58:16.965Z,8.07
2023-03-19T16:00:48.855Z,8.00
2023-03-19T16:03:42.659Z,7.87
2023-03-19T16:06:36.832Z,9.10
2023-03-19T16:09:14.209Z,7.80
2023-03-19T16:11:46.292Z,8.70
2023-03-19T16:14:35.134Z,5.47
2023-03-19T16:17:15.796Z,7.20
2023-03-19T16:19:49.795Z,5.90
2023-03-19T16:22:23.764Z,5.47
2023-03-19T16:24:55.949Z,5.77
2023-03-19T16:27:38.380Z,6.63
2023-03-19T16:30:21.348Z,8.73
2023-03-19T16:33:06.833Z,8.03
2023-03-19T16:35:38.461Z,6.40
2023-03-19T16:38:27.786Z,6.00
2023-03-19T16:41:22.939Z,8.30
2023-03-19T16:43:55.122Z,6.97
2023-03-19T16:46:27.000Z,7.73
2023-03-19T16:49:00.025Z,6.20
2023-03-19T16:51:32.207Z,8.93
2023-03-19T16:54:04.050Z,8.57
2023-03-19T16:56:36.415Z,9.47
2023-03-19T16:59:19.862Z,5.93
2023-03-19T17:01:51.323Z,7.63
2023-03-19T17:04:23.912Z,10.47
2023-03-19T17:06:55.412Z,8.30
2023-03-19T17:09:27.219Z,7.93
2023-03-19T17:11:59.285Z,7.53
2023-03-19T17:14:31.733Z,9.43
2023-03-19T17:17:03.201Z,8.43
2023-03-19T17:19:36.124Z,7.50
2023-03-19T17:22:10.807Z,9.57
2023-03-19T17:24:43.495Z,7.60
2023-03-19T17:27:15.388Z,9.07
2023-03-19T17:29:46.722Z,8.17
2023-03-19T17:32:19.886Z,9.33
2023-03-19T17:34:51.237Z,9.63
2023-03-19T17:37:22.606Z,8.67
2023-03-19T17:39:54.652Z,8.30
2023-03-19T17:42:26.016Z,9.13
2023-03-19T17:44:58.863Z,7.50
2023-03-19T17:47:30.441Z,7.10
2023-03-19T17:50:01.824Z,8.83
2023-03-19T17:52:35.332Z,8.50
2023-03-19T17:55:28.275Z,9.03
2023-03-19T17:57:59.596Z,7.93
2023-03-19T18:00:30.932Z,14.00
2023-03-19T18:03:04.315Z,9.40
2023-03-19T18:05:35.727Z,12.03
2023-03-19T18:08:09.347Z,10.17
2023-03-19T18:10:41.000Z,10.73
2023-03-19T18:13:12.674Z,11.07
2023-03-19T18:15:45.462Z,10.63
2023-03-19T18:18:20.329Z,12.73
2023-03-19T18:20:52.334Z,12.87
2023-03-19T18:23:24.672Z,10.30
2023-03-19T18:25:56.258Z,10.43
2023-03-19T18:28:27.640Z,13.90
2023-03-19T18:31:00.349Z,10.90
2023-03-19T18:33:33.051Z,9.40
2023-03-19T18:36:04.623Z,12.13
2023-03-19T18:38:36.935Z,10.00
2023-03-19T18:41:12.293Z,13.80
2023-03-19T18:43:43.642Z,11.38
2023-03-19T18:46:20.641Z,15.47
2023-03-19T18:48:56.986Z,11.63
2023-03-19T18:51:28.467Z,13.03
2023-03-19T18:53:59.776Z,11.07
2023-03-19T18:56:34.763Z,11.07
2023-03-19T18:59:17.241Z,11.13
2023-03-19T19:01:49.526Z,14.13
2023-03-19T19:04:21.216Z,12.90
2023-03-19T19:06:52.548Z,13.63
2023-03-19T19:09:23.864Z,14.03
2023-03-19T19:11:58.558Z,15.20
2023-03-19T19:14:30.208Z,14.20
2023-03-19T19:17:01.627Z,15.73
2023-03-19T19:19:32.993Z,14.30
2023-03-19T19:22:04.462Z,16.90
2023-03-19T19:24:35.788Z,28.57
2023-03-19T19:27:15.422Z,27.20
2023-03-19T19:29:46.991Z,22.53
2023-03-19T19:32:24.954Z,24.03
2023-03-19T19:34:56.851Z,18.60
2023-03-19T19:37:28.163Z,21.83
2023-03-19T19:39:59.452Z,16.90
2023-03-19T19:42:30.848Z,15.40
2023-03-19T19:45:03.408Z,14.50
2023-03-19T19:47:35.729Z,18.03
2023-03-19T19:50:17.029Z,17.53
2023-03-19T19:52:48.669Z,17.60
2023-03-19T19:55:20.224Z,18.57
2023-03-19T19:57:54.019Z,21.27
2023-03-19T20:00:28.502Z,22.90
2023-03-19T20:03:00.771Z,23.87
2023-03-19T20:05:34.434Z,21.93
2023-03-19T20:08:06.235Z,25.83
2023-03-19T20:10:38.227Z,22.83
2023-03-19T20:13:22.507Z,28.57
2023-03-19T20:15:57.198Z,36.70
2023-03-19T20:18:33.240Z,52.70
2023-03-19T20:21:04.800Z,118.35
2023-03-19T20:23:36.387Z,94.00
2023-03-19T20:26:12.930Z,93.40
2023-03-19T20:28:45.327Z,163.03
2023-03-19T20:31:27.809Z,82.50
2023-03-19T20:33:59.180Z,83.13
2023-03-19T20:36:30.529Z,76.13
2023-03-19T20:39:01.873Z,101.97
2023-03-19T20:41:33.235Z,159.50
2023-03-19T20:44:05.978Z,138.30
2023-03-19T20:46:37.606Z,205.10
2023-03-19T20:49:14.462Z,168.30
2023-03-19T20:51:46.821Z,120.03
2023-03-19T20:54:18.597Z,158.67
2023-03-19T20:56:49.966Z,119.97
2023-03-19T20:59:21.400Z,105.60
2023-03-19T21:01:56.239Z,124.97
2023-03-19T21:04:27.631Z,80.37
2023-03-19T21:06:59.354Z,102.23
2023-03-19T21:09:30.788Z,88.53
2023-03-19T21:12:02.183Z,90.43
2023-03-19T21:14:34.649Z,71.40
2023-03-19T21:17:06.278Z,101.23
2023-03-19T21:19:40.683Z,112.57
2023-03-19T21:22:28.307Z,96.73
2023-03-19T21:25:09.650Z,129.47
2023-03-19T21:27:45.509Z,105.50
2023-03-19T21:30:18.660Z,104.25
2023-03-19T21:32:51.541Z,91.43
2023-03-19T21:35:25.784Z,83.23
2023-03-19T21:37:57.112Z,57.90
2023-03-19T21:40:30.806Z,102.13
2023-03-19T21:43:02.860Z,163.87
2023-03-19T21:45:36.474Z,70.77
2023-03-19T21:48:31.033Z,38.47
2023-03-19T21:51:04.084Z,41.47
2023-03-19T21:53:35.476Z,47.67
2023-03-19T21:56:15.295Z,53.87
2023-03-19T21:58:47.356Z,51.97
2023-03-19T22:01:24.156Z,54.87
2023-03-19T22:03:57.213Z,53.93
2023-03-19T22:06:28.946Z,34.40
2023-03-19T22:09:00.323Z,26.77
2023-03-19T22:11:36.384Z,44.47
2023-03-19T22:14:17.739Z,32.92
2023-03-19T22:16:53.404Z,27.27
2023-03-19T22:19:25.765Z,38.35
2023-03-19T22:21:57.139Z,24.80
2023-03-19T22:24:28.519Z,31.23
2023-03-19T22:27:00.902Z,38.80
2023-03-19T22:29:32.906Z,35.53
2023-03-19T22:32:06.561Z,50.77
2023-03-19T22:34:37.897Z,29.87
2023-03-19T22:37:29.557Z,27.43
2023-03-19T22:40:00.880Z,27.03
2023-03-19T22:42:32.584Z,28.97
2023-03-19T22:45:04.525Z,27.30
2023-03-19T22:47:38.151Z,27.80
2023-03-19T22:50:28.336Z,27.70
2023-03-19T22:52:59.679Z,31.13
2023-03-19T22:55:31.848Z,31.63
2023-03-19T22:58:03.167Z,34.50
2023-03-19T23:00:34.515Z,35.23
2023-03-19T23:03:09.008Z,30.37
2023-03-19T23:05:42.976Z,32.23
2023-03-19T23:08:18.257Z,27.53
2023-03-19T23:10:51.428Z,44.10
2023-03-19T23:13:23.030Z,25.47
2023-03-19T23:15:58.226Z,31.03
2023-03-19T23:18:33.082Z,30.90
2023-03-19T23:21:04.543Z,27.00
2023-03-19T23:23:36.108Z,34.93
2023-03-19T23:26:23.053Z,29.27
2023-03-19T23:28:56.639Z,29.97
2023-03-19T23:31:28.572Z,31.20
2023-03-19T23:34:00.967Z,32.30
2023-03-19T23:36:32.555Z,29.23
2023-03-19T23:39:04.730Z,25.80
2023-03-19T23:41:44.590Z,30.97
2023-03-19T23:44:18.395Z,28.87
2023-03-19T23:46:51.943Z,27.13
2023-03-19T23:49:30.697Z,22.23
2023-03-19T23:52:04.203Z,28.00
2023-03-19T23:54:39.476Z,29.67
2023-03-19T23:57:15.510Z,34.63
2023-03-19T23:59:50.256Z,29.23
